Time;durP1;ratioP1;P1;durP2;ratioP2;P2;SDS_P1;SDS_P2;PMS_P1;PMS_P2;Temp;Humidity;BMP_temperature;BMP_pressure;BME280_temperature;BME280_humidity;BME280_pressure;Samples;Min_cycle;Max_cycle;Signal;HPM_P1;HPM_P2
2021/12/04 00:01:52;;;;;;;4.72;4.05;;;9.70;80.80;;;;;;5092746;28;20126;-58
2021/12/04 00:04:26;;;;;;;5.03;4.53;;;9.70;80.80;;;;;;5091843;28;20134;-56
2021/12/04 00:06:52;;;;;;;4.40;4.00;;;9.70;80.80;;;;;;5092165;28;20075;-56
2021/12/04 00:09:20;;;;;;;5.10;4.28;;;9.70;80.80;;;;;;5091816;28;20121;-55
2021/12/04 00:11:55;;;;;;;4.72;4.22;;;9.70;80.80;;;;;;5095797;28;20067;-57
2021/12/04 00:14:21;;;;;;;4.55;3.97;;;9.60;80.80;;;;;;5110333;28;20058;-56
2021/12/04 00:16:47;;;;;;;4.38;3.97;;;9.70;80.80;;;;;;5113428;28;20040;-57
2021/12/04 00:19:13;;;;;;;4.65;4.00;;;9.70;80.80;;;;;;5116127;28;20499;-57
2021/12/04 00:21:39;;;;;;;4.68;4.18;;;9.70;80.80;;;;;;5108063;28;20368;-56
2021/12/04 00:24:05;;;;;;;5.80;4.40;;;9.70;80.80;;;;;;5094278;28;20051;-57
2021/12/04 00:26:30;;;;;;;6.15;4.90;;;9.70;80.80;;;;;;5093754;28;20580;-55
2021/12/04 00:28:56;;;;;;;5.15;4.38;;;9.70;80.80;;;;;;5095437;28;20115;-56
2021/12/04 00:31:22;;;;;;;4.32;3.92;;;9.80;80.90;;;;;;5095809;28;20093;-58
2021/12/04 00:33:48;;;;;;;5.10;4.50;;;9.70;80.80;;;;;;5096028;28;20480;-57
2021/12/04 00:36:29;;;;;;;4.32;3.92;;;9.70;80.80;;;;;;5095451;28;20105;-57
2021/12/04 00:49:59;;;;;;;5.43;4.15;;;9.70;80.70;;;;;;5032596;28;20023;-57
2021/12/04 00:52:24;;;;;;;5.05;4.47;;;9.70;80.90;;;;;;5032172;28;20129;-57
2021/12/04 00:54:50;;;;;;;4.97;4.35;;;9.70;80.80;;;;;;5032510;28;20053;-56
2021/12/04 00:57:16;;;;;;;6.13;5.10;;;9.70;80.90;;;;;;5015982;28;20442;-57
2021/12/04 00:59:42;;;;;;;4.78;4.20;;;9.70;80.80;;;;;;5031676;28;20057;-57
2021/12/04 01:02:08;;;;;;;4.78;4.05;;;9.60;80.80;;;;;;5032007;28;20500;-58
2021/12/04 01:04:34;;;;;;;4.38;3.88;;;9.70;80.80;;;;;;5032138;28;20128;-58
2021/12/04 01:07:00;;;;;;;5.65;4.43;;;9.70;80.80;;;;;;5032352;28;20567;-58
2021/12/04 01:09:26;;;;;;;4.78;4.20;;;9.70;80.80;;;;;;5032270;28;20053;-57
2021/12/04 01:11:54;;;;;;;4.90;4.40;;;9.70;80.80;;;;;;5032203;28;20409;-58
2021/12/04 01:14:23;;;;;;;5.13;4.30;;;9.70;80.80;;;;;;5030985;28;20057;-57
2021/12/04 01:16:50;;;;;;;5.63;4.60;;;9.70;80.80;;;;;;5032205;28;20041;-57
2021/12/04 01:19:18;;;;;;;6.03;4.60;;;9.70;80.80;;;;;;5060666;28;20061;-58
2021/12/04 01:21:44;;;;;;;5.38;4.68;;;9.70;80.80;;;;;;5055197;28;20052;-57
2021/12/04 01:24:10;;;;;;;4.93;4.05;;;9.70;80.80;;;;;;5081176;28;20055;-56
2021/12/04 01:26:36;;;;;;;4.95;4.20;;;9.70;80.80;;;;;;5094513;28;20391;-57
2021/12/04 01:29:01;;;;;;;7.00;5.05;;;9.80;80.80;;;;;;5093655;28;20119;-57
2021/12/04 01:31:27;;;;;;;4.95;4.45;;;9.70;80.80;;;;;;5094007;28;20047;-58
2021/12/04 01:33:53;;;;;;;5.68;4.50;;;9.70;80.80;;;;;;5095143;28;20059;-57
2021/12/04 01:36:18;;;;;;;5.32;4.30;;;9.70;80.80;;;;;;5093944;28;20044;-57
2021/12/04 01:38:44;;;;;;;4.93;4.20;;;9.70;80.70;;;;;;5094120;28;20044;-56
2021/12/04 01:41:10;;;;;;;4.80;4.30;;;9.80;80.80;;;;;;5094194;28;20128;-59
2021/12/04 01:43:37;;;;;;;5.95;5.00;;;9.70;80.70;;;;;;5093974;28;20044;-58
2021/12/04 01:46:03;;;;;;;5.80;4.57;;;9.70;80.70;;;;;;5094529;28;20056;-57
2021/12/04 01:48:29;;;;;;;5.53;4.55;;;9.70;80.70;;;;;;5093552;28;20094;-56
2021/12/04 01:50:55;;;;;;;5.15;4.30;;;9.70;80.70;;;;;;5093734;28;20088;-57
2021/12/04 01:53:22;;;;;;;5.63;4.60;;;9.70;80.70;;;;;;5093638;28;20036;-57
2021/12/04 01:55:51;;;;;;;5.50;4.57;;;9.70;80.70;;;;;;5099698;28;20123;-58
2021/12/04 01:58:17;;;;;;;5.75;4.35;;;9.70;80.70;;;;;;5114347;28;20036;-57
2021/12/04 02:00:43;;;;;;;5.00;4.43;;;9.70;80.70;;;;;;5113867;28;20050;-57
2021/12/04 02:03:13;;;;;;;4.88;3.88;;;9.70;80.70;;;;;;5113815;28;20036;-57
2021/12/04 02:05:39;;;;;;;6.07;4.90;;;9.80;80.70;;;;;;5113083;27;20058;-55
2021/12/04 02:08:06;;;;;;;6.10;4.85;;;9.70;80.70;;;;;;5093634;28;20044;-57
2021/12/04 02:10:33;;;;;;;6.22;4.55;;;9.80;80.70;;;;;;5093806;28;20036;-57
2021/12/04 02:12:58;;;;;;;5.65;4.72;;;9.70;80.70;;;;;;5093485;28;20560;-58
2021/12/04 02:15:24;;;;;;;5.30;4.65;;;9.80;80.70;;;;;;5093428;28;20075;-58
2021/12/04 02:17:50;;;;;;;7.35;5.60;;;9.70;80.70;;;;;;5094342;28;20060;-57
2021/12/04 02:20:22;;;;;;;5.40;4.38;;;9.70;80.70;;;;;;5093602;28;20419;-58
2021/12/04 02:22:49;;;;;;;5.20;4.25;;;9.70;80.70;;;;;;5093459;28;20407;-59
2021/12/04 02:25:16;;;;;;;6.13;4.53;;;9.70;80.70;;;;;;5093718;28;20032;-58
2021/12/04 02:27:43;;;;;;;5.07;4.53;;;9.70;80.70;;;;;;5094618;28;20491;-57
2021/12/04 02:30:15;;;;;;;7.55;5.20;;;9.70;80.70;;;;;;5093619;28;20040;-58
2021/12/04 02:32:41;;;;;;;6.10;4.85;;;9.70;80.70;;;;;;5093330;28;20097;-58
2021/12/04 02:35:09;;;;;;;4.88;4.15;;;9.70;80.70;;;;;;5092463;28;20044;-57
2021/12/04 02:37:36;;;;;;;5.15;3.95;;;9.70;80.70;;;;;;5093863;28;20048;-57
2021/12/04 02:40:04;;;;;;;4.78;4.25;;;9.70;80.70;;;;;;5092333;28;20123;-59
2021/12/04 02:42:30;;;;;;;5.30;4.70;;;9.70;80.70;;;;;;5093074;28;20407;-57
2021/12/04 02:45:04;;;;;;;5.18;4.53;;;9.70;80.70;;;;;;5093169;28;20051;-57
2021/12/04 02:47:30;;;;;;;5.90;4.63;;;9.70;80.70;;;;;;5093075;28;20051;-56
2021/12/04 02:49:56;;;;;;;5.10;4.38;;;9.80;81.40;;;;;;5093692;28;20147;-57
2021/12/04 02:52:23;;;;;;;6.05;5.05;;;9.70;80.70;;;;;;5093868;28;20082;-57
2021/12/04 02:54:50;;;;;;;6.28;4.88;;;9.70;80.70;;;;;;5092854;28;20047;-57
2021/12/04 02:57:17;;;;;;;6.57;5.13;;;9.70;80.70;;;;;;5092639;28;20173;-58
2021/12/04 02:59:44;;;;;;;6.88;4.97;;;9.70;80.70;;;;;;5093653;28;20493;-57
2021/12/04 03:02:21;;;;;;;6.35;5.13;;;9.70;80.70;;;;;;5092689;28;20055;-62
2021/12/04 03:04:52;;;;;;;5.38;4.55;;;9.70;80.70;;;;;;5092702;28;20396;-62
2021/12/04 03:07:19;;;;;;;5.57;4.43;;;9.70;80.70;;;;;;5092098;28;20100;-57
2021/12/04 03:09:45;;;;;;;6.30;4.60;;;9.70;80.70;;;;;;5093686;28;20039;-57
2021/12/04 03:12:12;;;;;;;5.40;4.90;;;9.70;80.70;;;;;;5091350;28;20126;-59
2021/12/04 03:14:38;;;;;;;5.53;4.53;;;9.70;80.70;;;;;;5091183;28;20083;-58
2021/12/04 03:17:05;;;;;;;6.72;4.60;;;9.70;80.70;;;;;;5092602;28;20117;-59
2021/12/04 03:19:32;;;;;;;6.38;4.75;;;9.70;80.70;;;;;;5091021;28;20059;-58
2021/12/04 03:21:58;;;;;;;4.90;4.30;;;9.80;80.70;;;;;;5092714;28;20533;-58
2021/12/04 03:24:25;;;;;;;6.43;5.03;;;9.70;80.70;;;;;;5092310;28;20035;-58
2021/12/04 03:26:51;;;;;;;5.30;4.20;;;9.70;80.70;;;;;;5092524;28;20044;-57
2021/12/04 03:29:20;;;;;;;5.75;4.53;;;9.70;80.70;;;;;;5092529;28;20047;-59
2021/12/04 03:42:37;;;;;;;6.22;5.10;;;9.70;80.70;;;;;;5093451;28;20092;-57
2021/12/04 03:45:05;;;;;;;7.40;5.82;;;9.70;80.70;;;;;;5092149;28;20539;-57
2021/12/04 03:47:31;;;;;;;4.97;4.22;;;9.70;80.70;;;;;;5092039;28;20052;-60
2021/12/04 03:49:57;;;;;;;6.38;4.60;;;9.70;80.70;;;;;;5092289;28;20048;-57
2021/12/04 03:52:23;;;;;;;5.80;4.95;;;9.70;80.70;;;;;;5096073;28;20039;-58
2021/12/04 03:54:49;;;;;;;5.78;4.80;;;9.70;80.70;;;;;;5103643;28;20036;-57
2021/12/04 03:57:15;;;;;;;5.68;4.63;;;9.70;80.70;;;;;;5116667;28;20046;-58
2021/12/04 03:59:47;;;;;;;5.50;4.88;;;9.70;80.70;;;;;;5115417;28;20039;-57
2021/12/04 04:02:16;;;;;;;5.97;4.60;;;9.60;80.60;;;;;;5116305;27;20092;-57
2021/12/04 04:04:42;;;;;;;4.95;4.45;;;9.70;80.70;;;;;;5114702;28;20040;-58
2021/12/04 04:07:08;;;;;;;5.53;4.28;;;9.70;80.70;;;;;;5116569;28;20040;-58
2021/12/04 04:09:35;;;;;;;6.55;4.68;;;9.70;80.60;;;;;;5116047;28;20043;-57
2021/12/04 04:12:01;;;;;;;7.25;4.55;;;9.70;80.70;;;;;;5115318;28;20490;-57
2021/12/04 04:14:27;;;;;;;5.40;4.63;;;9.70;80.70;;;;;;5114459;28;20093;-57
2021/12/04 04:16:55;;;;;;;5.75;4.60;;;9.70;80.70;;;;;;5116007;28;20046;-58
2021/12/04 04:19:22;;;;;;;4.47;4.03;;;9.70;80.70;;;;;;5116393;28;20050;-59
2021/12/04 04:21:52;;;;;;;5.32;4.40;;;9.70;80.70;;;;;;5115968;28;20540;-58
2021/12/04 04:24:18;;;;;;;5.65;4.30;;;9.70;80.70;;;;;;5113042;28;20062;-58
2021/12/04 04:26:45;;;;;;;6.15;4.80;;;9.70;80.70;;;;;;5115470;27;20043;-56
2021/12/04 04:29:12;;;;;;;5.22;4.10;;;9.80;80.70;;;;;;5116148;28;20050;-56
2021/12/04 04:31:49;;;;;;;5.85;4.22;;;9.70;80.60;;;;;;5115542;28;20036;-58
2021/12/04 04:34:23;;;;;;;5.15;4.60;;;9.70;80.70;;;;;;5115705;28;20051;-57
2021/12/04 04:37:12;;;;;;;6.47;4.75;;;9.70;80.60;;;;;;5113421;28;20122;-54
2021/12/04 05:12:30;;;;;;;7.10;4.30;;;9.70;80.60;;;;;;5114932;28;20043;-58
2021/12/04 05:14:58;;;;;;;4.45;3.83;;;9.70;80.60;;;;;;5112300;28;20073;-57
2021/12/04 05:19:56;;;;;;;4.95;3.67;;;9.70;80.70;;;;;;5114946;28;20085;-57
2021/12/04 05:22:23;;;;;;;6.40;4.20;;;9.70;80.60;;;;;;5114696;28;20090;-57
2021/12/04 05:24:49;;;;;;;5.88;3.88;;;9.70;80.60;;;;;;5113080;28;20060;-58
2021/12/04 05:27:16;;;;;;;5.50;4.25;;;9.70;80.70;;;;;;5111157;28;20142;-57
2021/12/04 05:29:42;;;;;;;4.93;4.20;;;9.70;80.70;;;;;;5114034;28;20566;-58
2021/12/04 05:32:10;;;;;;;6.68;4.63;;;9.70;80.60;;;;;;5114577;28;20047;-58
2021/12/04 05:34:35;;;;;;;4.85;4.15;;;9.70;80.70;;;;;;5114498;28;20511;-57
2021/12/04 05:37:02;;;;;;;4.95;4.03;;;9.70;80.70;;;;;;5114189;28;20131;-58
2021/12/04 05:39:28;;;;;;;5.43;3.88;;;9.70;81.30;;;;;;5113019;28;20066;-58
2021/12/04 05:41:54;;;;;;;4.80;3.83;;;9.70;80.70;;;;;;5114363;28;20052;-57
2021/12/04 05:44:24;;;;;;;5.50;4.20;;;9.70;81.30;;;;;;5114487;28;20050;-58
2021/12/04 05:47:04;;;;;;;4.15;3.67;;;9.70;80.60;;;;;;5113963;28;20078;-58
2021/12/04 05:49:36;;;;;;;4.70;3.90;;;9.70;80.60;;;;;;5114177;28;20122;-58
2021/12/04 05:52:12;;;;;;;4.57;3.72;;;9.80;80.70;;;;;;5114125;28;20472;-57
2021/12/04 05:57:08;;;;;;;5.50;4.10;;;9.70;80.50;;;;;;5114165;27;19927;-56
2021/12/04 05:59:34;;;;;;;4.65;4.20;;;9.70;80.70;;;;;;5114358;28;20099;-57
2021/12/04 06:02:01;;;;;;;4.63;3.70;;;9.70;80.70;;;;;;5113981;28;20043;-57
2021/12/04 06:04:27;;;;;;;5.25;3.83;;;9.80;80.70;;;;;;5114851;28;20043;-57
2021/12/04 06:06:53;;;;;;;5.15;3.78;;;9.70;80.60;;;;;;5114114;28;20050;-57
2021/12/04 06:09:19;;;;;;;4.47;3.80;;;9.70;80.60;;;;;;5098649;28;20051;-56
2021/12/04 06:11:45;;;;;;;4.55;3.97;;;9.80;80.70;;;;;;5094022;28;20052;-57
2021/12/04 06:14:11;;;;;;;4.38;3.70;;;9.70;80.60;;;;;;5093413;28;20067;-57
2021/12/04 06:16:37;;;;;;;5.32;3.97;;;9.70;80.60;;;;;;5091561;28;20072;-58
2021/12/04 06:19:24;;;;;;;5.10;3.78;;;9.70;80.60;;;;;;5100132;28;20414;-58
2021/12/04 06:24:34;;;;;;;4.93;3.67;;;9.70;80.60;;;;;;5113442;28;20039;-58
2021/12/04 06:26:59;;;;;;;4.60;3.60;;;9.80;80.70;;;;;;5113749;28;20103;-57
2021/12/04 06:29:25;;;;;;;4.93;3.88;;;9.80;80.70;;;;;;5113320;28;20040;-59
2021/12/04 06:31:51;;;;;;;4.85;4.05;;;9.70;81.20;;;;;;5113756;28;20047;-60
2021/12/04 06:34:17;;;;;;;4.82;3.67;;;9.70;80.60;;;;;;5112713;28;20043;-58
2021/12/04 06:36:43;;;;;;;5.60;3.53;;;9.70;80.60;;;;;;5112482;28;20427;-57
2021/12/04 06:39:09;;;;;;;5.13;4.10;;;9.70;80.60;;;;;;5113669;28;20040;-57
2021/12/04 06:41:35;;;;;;;4.55;3.67;;;9.80;80.60;;;;;;5099427;28;20044;-57
2021/12/04 06:44:01;;;;;;;4.88;3.95;;;9.70;80.50;;;;;;5113194;28;20122;-57
2021/12/04 06:46:28;;;;;;;5.57;3.97;;;9.80;80.60;;;;;;5113538;28;20458;-58
2021/12/04 06:49:05;;;;;;;4.53;3.95;;;9.80;80.70;;;;;;5112573;28;20044;-56
2021/12/04 06:51:34;;;;;;;4.65;3.75;;;9.70;80.60;;;;;;5112955;28;20056;-60
2021/12/04 06:56:33;;;;;;;4.72;3.45;;;9.70;80.60;;;;;;5113346;28;20047;-57
2021/12/04 06:59:03;;;;;;;4.50;3.80;;;9.80;81.30;;;;;;5113129;28;20372;-59
2021/12/04 07:01:28;;;;;;;4.60;4.10;;;9.70;80.50;;;;;;5112630;28;20597;-60
2021/12/04 07:03:54;;;;;;;4.97;3.80;;;9.80;80.60;;;;;;5112635;28;20048;-57
2021/12/04 07:06:20;;;;;;;4.55;3.67;;;9.70;80.60;;;;;;5112691;28;20047;-57
2021/12/04 07:08:46;;;;;;;4.95;3.92;;;9.80;80.60;;;;;;5112460;28;20046;-57
2021/12/04 07:11:11;;;;;;;3.85;3.22;;;9.70;80.50;;;;;;5112844;28;20040;-56
2021/12/04 07:13:37;;;;;;;4.10;3.63;;;9.70;80.50;;;;;;5112796;28;20133;-62
2021/12/04 07:16:05;;;;;;;5.75;3.60;;;9.80;80.60;;;;;;5112704;28;20058;-59
2021/12/04 07:18:33;;;;;;;4.53;3.92;;;9.80;80.60;;;;;;5112246;28;20374;-57
2021/12/04 07:20:59;;;;;;;4.78;3.78;;;9.80;80.60;;;;;;5110605;28;20394;-60
2021/12/04 07:23:25;;;;;;;5.60;3.95;;;9.80;80.60;;;;;;5111731;28;20036;-59
2021/12/04 07:25:51;;;;;;;4.68;3.42;;;9.70;80.50;;;;;;5111689;28;20264;-60
2021/12/04 07:28:17;;;;;;;5.00;3.53;;;9.70;80.50;;;;;;5111722;28;20043;-61
2021/12/04 07:30:43;;;;;;;5.53;3.97;;;9.70;80.50;;;;;;5111336;28;20058;-62
2021/12/04 07:33:09;;;;;;;4.43;3.72;;;9.80;80.60;;;;;;5111958;28;20051;-59
2021/12/04 07:35:34;;;;;;;5.03;3.95;;;9.80;80.60;;;;;;5110251;28;20429;-58
2021/12/04 07:38:04;;;;;;;5.25;3.80;;;9.80;80.60;;;;;;5111517;28;20528;-59
2021/12/04 07:40:30;;;;;;;4.53;3.63;;;9.80;80.60;;;;;;5112623;28;20054;-57
2021/12/04 07:42:56;;;;;;;4.47;3.70;;;9.80;80.60;;;;;;5112700;28;20040;-61
2021/12/04 07:45:22;;;;;;;4.93;3.67;;;9.70;80.50;;;;;;5112805;28;20075;-58
2021/12/04 07:47:50;;;;;;;4.13;3.53;;;9.70;80.50;;;;;;5112138;28;20101;-58
2021/12/04 07:50:16;;;;;;;4.38;3.80;;;9.80;80.60;;;;;;5112462;28;20048;-57
2021/12/04 07:52:42;;;;;;;4.55;3.42;;;9.80;80.60;;;;;;5111588;28;20062;-58
2021/12/04 07:55:09;;;;;;;4.47;3.90;;;9.80;80.60;;;;;;5112243;28;20043;-58
2021/12/04 07:57:35;;;;;;;4.82;4.28;;;9.80;80.60;;;;;;5110994;28;20130;-56
2021/12/04 08:00:05;;;;;;;4.72;4.00;;;9.80;80.60;;;;;;5112263;28;20477;-61
2021/12/04 08:02:31;;;;;;;4.80;3.72;;;9.70;80.50;;;;;;5111956;28;20089;-56
2021/12/04 08:04:57;;;;;;;4.82;3.38;;;9.80;80.60;;;;;;5112219;28;20406;-58
2021/12/04 08:07:23;;;;;;;4.80;3.83;;;9.70;80.50;;;;;;5112433;28;20051;-57
2021/12/04 08:09:48;;;;;;;5.70;3.65;;;9.70;80.50;;;;;;5112125;28;20054;-57
2021/12/04 08:12:14;;;;;;;4.53;3.90;;;9.70;80.50;;;;;;5112561;28;20031;-57
2021/12/04 08:14:40;;;;;;;4.47;3.50;;;9.70;80.50;;;;;;5111812;28;20044;-58
2021/12/04 08:17:06;;;;;;;5.38;4.10;;;9.70;80.50;;;;;;5112265;28;20047;-57
2021/12/04 08:19:32;;;;;;;4.82;4.10;;;9.80;80.60;;;;;;5112291;28;20044;-55
2021/12/04 08:21:58;;;;;;;5.18;3.85;;;9.80;80.60;;;;;;5110956;28;20131;-57
2021/12/04 08:24:24;;;;;;;4.80;3.72;;;9.80;80.50;;;;;;5102386;28;20047;-58
2021/12/04 08:26:50;;;;;;;4.38;3.22;;;9.80;80.60;;;;;;5112540;28;20040;-58
2021/12/04 08:29:16;;;;;;;4.57;3.60;;;9.70;80.50;;;;;;5111352;28;20138;-58
2021/12/04 08:31:42;;;;;;;5.22;3.80;;;9.70;80.50;;;;;;5112404;28;20127;-58
2021/12/04 08:34:08;;;;;;;6.07;4.38;;;9.70;80.40;;;;;;5111853;28;20092;-58
2021/12/04 08:36:34;;;;;;;4.82;3.72;;;9.70;80.50;;;;;;5112120;28;20479;-57
2021/12/04 08:39:02;;;;;;;4.68;3.72;;;9.70;80.50;;;;;;5112011;28;20131;-58
2021/12/04 08:41:28;;;;;;;4.85;3.47;;;9.80;80.50;;;;;;5115487;28;20039;-58
2021/12/04 08:43:54;;;;;;;4.65;3.78;;;9.70;80.40;;;;;;5115772;28;20040;-59
2021/12/04 08:46:22;;;;;;;5.35;4.07;;;9.80;80.50;;;;;;5115441;28;20080;-59
2021/12/04 08:48:50;;;;;;;4.95;3.70;;;9.70;80.50;;;;;;5115518;28;20078;-59
2021/12/04 08:51:18;;;;;;;4.90;3.50;;;9.70;80.50;;;;;;5115409;28;20135;-58
2021/12/04 08:53:44;;;;;;;4.82;3.58;;;9.70;80.50;;;;;;5115455;28;20082;-59
2021/12/04 08:56:10;;;;;;;4.78;3.45;;;9.70;80.50;;;;;;5106332;28;20059;-60
2021/12/04 08:58:39;;;;;;;5.00;3.72;;;9.70;80.40;;;;;;5115120;28;20044;-59
2021/12/04 09:01:11;;;;;;;5.65;4.07;;;9.80;80.50;;;;;;5114443;28;20399;-57
2021/12/04 09:03:40;;;;;;;3.85;3.25;;;9.80;80.50;;;;;;5115756;28;20047;-60
2021/12/04 09:06:06;;;;;;;5.68;3.63;;;9.70;80.50;;;;;;5114940;28;20142;-56
2021/12/04 09:08:32;;;;;;;4.05;3.60;;;9.70;80.50;;;;;;5114873;28;20048;-59
2021/12/04 09:11:02;;;;;;;4.43;3.70;;;9.70;80.50;;;;;;5114994;28;20044;-61
2021/12/04 09:13:29;;;;;;;4.43;3.63;;;9.80;80.60;;;;;;5114778;27;20535;-59
2021/12/04 09:15:57;;;;;;;4.78;3.72;;;9.70;80.50;;;;;;5115087;28;20091;-57
2021/12/04 09:18:24;;;;;;;4.72;3.55;;;9.80;80.50;;;;;;5114755;28;20043;-61
2021/12/04 09:20:51;;;;;;;5.15;3.50;;;9.70;80.50;;;;;;5115328;28;20047;-60
2021/12/04 09:23:19;;;;;;;4.47;3.45;;;9.70;80.50;;;;;;5114903;28;20388;-61
2021/12/04 09:25:55;;;;;;;5.38;3.78;;;9.70;80.50;;;;;;5114812;28;20105;-58
2021/12/04 09:29:02;;;;;;;3.72;3.00;;;9.70;80.50;;;;;;5114369;28;20078;-59
2021/12/04 10:06:33;;;;;;;3.95;3.15;;;9.70;80.50;;;;;;5113972;28;20051;-58
2021/12/04 10:17:47;;;;;;;3.55;3.25;;;9.70;80.60;;;;;;5112323;28;20083;-56
2021/12/04 10:32:06;;;;;;;4.68;3.53;;;9.70;80.60;;;;;;5113049;28;20384;-56
2021/12/04 10:33:54;;;;;;;3.30;2.97;;;9.70;80.60;;;;;;5113337;28;20048;-58
2021/12/04 10:36:32;;;;;;;4.03;3.30;;;9.70;80.60;;;;;;5113269;28;20047;-63
2021/12/04 10:38:59;;;;;;;4.65;3.38;;;9.70;80.50;;;;;;5113222;28;20036;-56
2021/12/04 10:41:39;;;;;;;3.40;3.10;;;9.70;80.60;;;;;;5111853;28;20180;-57
2021/12/04 10:44:25;;;;;;;3.60;2.92;;;9.70;80.50;;;;;;5113466;28;20637;-59
2021/12/04 10:47:06;;;;;;;3.92;3.25;;;9.70;80.50;;;;;;5113006;28;20039;-57
2021/12/04 10:50:02;;;;;;;3.38;2.65;;;9.70;80.60;;;;;;5111028;28;20176;-60
2021/12/04 10:55:27;;;;;;;4.22;3.10;;;9.70;80.60;;;;;;5111647;28;20404;-57
2021/12/04 11:00:47;;;;;;;3.23;2.93;;;9.70;80.60;;;;;;5112270;28;20102;-58
2021/12/04 11:03:45;;;;;;;3.13;2.70;;;9.80;80.70;;;;;;5110793;28;20048;-56
2021/12/04 11:23:11;;;;;;;3.28;2.97;;;9.70;80.60;;;;;;5094370;28;20375;-57
2021/12/04 11:26:05;;;;;;;3.60;2.90;;;9.70;80.60;;;;;;5110894;28;20487;-58
2021/12/04 11:28:49;;;;;;;3.50;2.95;;;9.70;80.60;;;;;;5112273;28;20032;-61
2021/12/04 11:44:47;;;;;;;3.33;2.70;;;9.70;80.70;;;;;;5091401;28;20044;-63
2021/12/04 11:47:13;;;;;;;3.03;2.45;;;9.70;80.60;;;;;;5092002;28;20361;-59
2021/12/04 11:49:39;;;;;;;3.10;2.70;;;9.70;80.60;;;;;;5091581;28;20052;-60
2021/12/04 11:52:14;;;;;;;3.10;2.80;;;9.70;80.60;;;;;;5090849;28;20101;-60
2021/12/04 11:54:46;;;;;;;3.38;2.90;;;9.70;80.60;;;;;;5111426;28;20037;-59
2021/12/04 11:57:15;;;;;;;3.92;3.20;;;9.70;80.60;;;;;;5111798;28;20044;-57
2021/12/04 11:59:42;;;;;;;3.90;3.03;;;9.80;80.70;;;;;;5111747;28;20074;-60
2021/12/04 12:02:18;;;;;;;3.60;3.00;;;9.70;80.60;;;;;;5104969;28;20562;-62
2021/12/04 12:04:53;;;;;;;3.35;2.70;;;9.70;80.60;;;;;;5103794;28;20043;-61
2021/12/04 12:07:25;;;;;;;3.33;2.80;;;9.70;80.60;;;;;;5110408;28;20054;-63
2021/12/04 12:10:12;;;;;;;3.65;3.03;;;9.70;80.60;;;;;;5102327;28;20032;-60
2021/12/04 12:12:46;;;;;;;3.88;2.95;;;9.70;80.60;;;;;;5112625;28;20043;-62
2021/12/04 12:15:32;;;;;;;3.08;2.67;;;9.70;80.60;;;;;;5115157;28;20044;-59
2021/12/04 12:18:16;;;;;;;5.15;4.28;;;9.70;80.60;;;;;;5112244;27;20055;-67
2021/12/04 12:20:48;;;;;;;4.82;3.38;;;9.70;80.30;;;;;;5115108;28;20179;-59
2021/12/04 12:23:17;;;;;;;6.68;4.15;;;9.70;80.40;;;;;;5114561;28;20093;-60
2021/12/04 12:34:13;;;;;;;5.38;4.10;;;9.70;80.50;;;;;;5113634;28;20039;-54
2021/12/04 12:36:40;;;;;;;5.60;3.90;;;9.70;80.60;;;;;;5112348;28;20424;-60
2021/12/04 12:39:05;;;;;;;5.55;3.80;;;9.70;80.60;;;;;;5113096;28;20046;-59
2021/12/04 12:41:42;;;;;;;5.15;3.63;;;9.70;80.60;;;;;;5114967;28;20051;-60
2021/12/04 12:44:07;;;;;;;5.55;4.22;;;9.70;80.50;;;;;;5115029;28;20050;-59
2021/12/04 12:46:59;;;;;;;4.90;3.85;;;9.70;80.60;;;;;;5113762;28;20043;-60
2021/12/04 12:49:38;;;;;;;4.57;4.00;;;9.70;80.50;;;;;;5113010;28;20063;-58
2021/12/04 12:52:13;;;;;;;4.50;3.70;;;9.70;80.50;;;;;;5114219;28;20075;-59
2021/12/04 12:54:56;;;;;;;4.45;3.47;;;9.70;80.60;;;;;;5110496;28;20044;-58
2021/12/04 12:57:31;;;;;;;5.70;3.85;;;9.70;80.50;;;;;;5114244;28;20039;-60
2021/12/04 13:14:13;;;;;;;11.45;8.23;;;9.50;80.60;;;;;;5066343;28;20052;-56
2021/12/04 13:16:45;;;;;;;12.57;7.40;;;9.50;80.70;;;;;;5066030;28;20119;-55
2021/12/04 13:19:14;;;;;;;12.50;8.15;;;9.50;80.70;;;;;;5066317;28;20051;-54
2021/12/04 13:21:43;;;;;;;9.70;7.28;;;9.50;80.80;;;;;;5066711;28;20790;-51
2021/12/04 13:24:11;;;;;;;10.75;7.85;;;9.50;80.90;;;;;;5064739;28;20049;-58
2021/12/04 13:26:40;;;;;;;11.57;7.80;;;9.50;80.80;;;;;;5065461;28;20083;-51
2021/12/04 13:29:07;;;;;;;9.65;7.53;;;9.60;80.90;;;;;;5066555;28;20052;-56
2021/12/04 13:31:37;;;;;;;10.45;7.85;;;9.50;80.90;;;;;;5065457;28;20131;-55
2021/12/04 13:34:09;;;;;;;11.43;7.60;;;9.50;80.90;;;;;;5066444;28;20079;-56
2021/12/04 13:36:36;;;;;;;10.70;7.65;;;9.60;81.60;;;;;;5066557;28;20045;-60
2021/12/04 13:39:14;;;;;;;10.73;8.27;;;9.50;80.90;;;;;;5052893;28;20103;-59
2021/12/04 13:41:42;;;;;;;10.27;7.07;;;9.60;81.00;;;;;;5096275;28;20126;-53
2021/12/04 13:44:10;;;;;;;9.98;7.10;;;9.60;81.00;;;;;;5110247;28;20027;-59
2021/12/04 13:46:43;;;;;;;9.38;7.07;;;9.60;81.00;;;;;;5109414;28;20043;-60
2021/12/04 13:49:11;;;;;;;9.25;7.43;;;9.60;81.00;;;;;;5109850;28;20135;-58
2021/12/04 13:51:41;;;;;;;10.10;7.22;;;9.50;81.00;;;;;;5111373;28;20157;-57
2021/12/04 13:54:08;;;;;;;10.18;7.75;;;9.50;81.00;;;;;;5108799;27;20745;-58
2021/12/04 13:56:35;;;;;;;11.07;8.20;;;9.60;81.00;;;;;;5109734;28;20438;-58
2021/12/04 13:59:04;;;;;;;9.55;7.57;;;9.60;81.00;;;;;;5108694;28;20092;-57
2021/12/04 14:01:36;;;;;;;9.50;6.95;;;9.60;81.00;;;;;;5108743;28;20104;-51
2021/12/04 14:04:03;;;;;;;10.27;7.60;;;9.60;81.00;;;;;;5108833;28;20580;-53
2021/12/04 14:06:29;;;;;;;12.30;7.88;;;9.60;81.00;;;;;;5099529;28;20188;-57
2021/12/04 14:09:02;;;;;;;11.32;7.60;;;9.60;81.00;;;;;;5108574;28;20039;-55
2021/12/04 14:11:32;;;;;;;10.10;7.32;;;9.60;80.90;;;;;;5109687;28;20620;-57
2021/12/04 14:14:12;;;;;;;10.80;7.07;;;9.60;80.90;;;;;;5101591;28;20044;-60
2021/12/04 14:16:41;;;;;;;10.20;7.63;;;9.60;80.90;;;;;;5106631;28;20035;-57
2021/12/04 14:19:21;;;;;;;9.57;7.00;;;9.60;80.90;;;;;;5107998;28;20032;-56
2021/12/04 14:22:01;;;;;;;10.25;6.97;;;9.60;80.80;;;;;;5108680;28;20043;-58
2021/12/04 14:24:32;;;;;;;9.90;7.13;;;9.60;80.90;;;;;;5098036;28;20060;-54
2021/12/04 14:27:01;;;;;;;9.75;7.07;;;9.60;80.90;;;;;;5108885;28;20043;-53
2021/12/04 14:29:36;;;;;;;9.93;7.13;;;9.60;80.90;;;;;;5106080;28;20055;-56
2021/12/04 14:32:05;;;;;;;10.00;6.82;;;9.70;80.90;;;;;;5109071;28;20051;-57
2021/12/04 14:34:32;;;;;;;9.70;7.05;;;9.60;80.90;;;;;;5109426;28;20051;-57
2021/12/04 14:37:12;;;;;;;10.07;7.03;;;9.70;81.00;;;;;;5109465;28;20046;-55
2021/12/04 14:39:43;;;;;;;8.88;7.03;;;9.70;80.90;;;;;;5108975;28;20032;-56
2021/12/04 14:42:31;;;;;;;9.63;7.28;;;9.60;80.90;;;;;;5114752;27;20713;-58
2021/12/04 14:45:00;;;;;;;8.85;6.28;;;9.70;81.40;;;;;;5128634;27;20035;-57
2021/12/04 14:47:35;;;;;;;8.20;6.18;;;9.60;80.80;;;;;;5130140;27;20053;-58
2021/12/04 14:50:02;;;;;;;10.10;7.15;;;9.70;80.90;;;;;;5128351;27;20502;-54
2021/12/04 14:52:31;;;;;;;9.60;7.10;;;9.70;80.90;;;;;;5128135;27;20039;-55
2021/12/04 14:54:57;;;;;;;10.52;7.43;;;9.70;80.90;;;;;;5129539;27;20151;-51
2021/12/04 14:57:28;;;;;;;10.73;7.65;;;9.70;80.80;;;;;;5110880;27;20043;-51
2021/12/04 15:00:12;;;;;;;10.73;7.38;;;9.70;80.80;;;;;;5119796;27;20071;-56
2021/12/04 15:02:38;;;;;;;10.20;7.22;;;9.70;80.80;;;;;;5095807;28;20073;-53
2021/12/04 15:05:06;;;;;;;9.95;7.43;;;9.70;80.80;;;;;;5108623;28;20495;-60
2021/12/04 15:07:34;;;;;;;9.93;7.35;;;9.70;80.80;;;;;;5105870;28;20826;-62
2021/12/04 15:10:15;;;;;;;9.98;7.25;;;9.60;80.80;;;;;;5124316;27;20055;-53
2021/12/04 15:12:41;;;;;;;9.57;7.05;;;9.70;80.80;;;;;;5109107;28;20499;-58
2021/12/04 15:15:13;;;;;;;11.13;7.22;;;9.70;80.80;;;;;;5111370;28;20044;-55
2021/12/04 15:17:42;;;;;;;10.43;7.55;;;9.70;80.80;;;;;;5104103;28;20507;-57
2021/12/04 15:20:12;;;;;;;9.50;7.07;;;9.70;80.80;;;;;;5097158;28;20101;-54
2021/12/04 15:22:44;;;;;;;29.48;17.83;;;9.70;80.80;;;;;;5092116;28;20080;-63
2021/12/04 15:25:13;;;;;;;73.30;20.95;;;9.60;79.80;;;;;;5072805;28;20060;-60
2021/12/04 15:27:40;;;;;;;65.45;21.60;;;9.30;80.00;;;;;;5098498;28;20122;-61
2021/12/04 15:30:10;;;;;;;62.30;21.27;;;9.20;80.60;;;;;;5111628;28;20039;-62
2021/12/04 15:32:39;;;;;;;63.00;21.13;;;9.20;80.90;;;;;;5093997;28;20040;-61
2021/12/04 15:35:45;;;;;;;52.53;21.65;;;9.20;81.00;;;;;;5110902;28;20420;-61
2021/12/04 15:38:09;;;;;;;55.70;19.88;;;9.20;81.10;;;;;;5108323;28;20476;-60
2021/12/04 15:40:56;;;;;;;46.88;19.75;;;9.20;81.10;;;;;;5111319;28;20101;-61
2021/12/04 15:49:09;;;;;;;40.40;18.65;;;9.30;80.90;;;;;;5043720;28;20084;-59
2021/12/04 15:54:16;;;;;;;37.47;17.85;;;9.20;81.10;;;;;;5045221;28;20182;-59
2021/12/04 15:56:48;;;;;;;35.55;17.45;;;9.30;81.20;;;;;;5051653;28;20146;-61
2021/12/04 15:59:26;;;;;;;29.48;18.27;;;9.30;81.10;;;;;;5036371;28;20135;-61
2021/12/04 16:01:55;;;;;;;35.10;18.33;;;9.40;81.20;;;;;;5035264;28;20057;-66
2021/12/04 16:04:30;;;;;;;35.45;17.85;;;9.40;81.10;;;;;;5052519;28;20049;-63
2021/12/04 16:07:00;;;;;;;32.00;17.85;;;9.40;81.10;;;;;;5033382;28;20054;-59
2021/12/04 16:09:33;;;;;;;36.13;18.10;;;9.40;81.00;;;;;;5032321;28;20482;-62
2021/12/04 16:12:10;;;;;;;35.85;18.20;;;9.40;81.00;;;;;;5033857;28;20056;-62
2021/12/04 16:14:41;;;;;;;31.73;17.90;;;9.50;81.00;;;;;;5033191;28;20048;-61